sensor_id;sensor_type;location;lat;lon;timestamp;pressure;altitude;pressure_sealevel;temperature;humidity
69318;BME280;56457;52.190;4.440;2023-10-31T00:00:13;99842.44;;;12.02;100.00
69318;BME280;56457;52.190;4.440;2023-10-31T00:01:16;99850.13;;;12.08;100.00
69318;BME280;56457;52.190;4.440;2023-10-31T00:02:17;99843.06;;;12.10;100.00
69318;BME280;56457;52.190;4.440;2023-10-31T00:03:17;99841.63;;;12.00;100.00
69318;BME280;56457;52.190;4.440;2023-10-31T00:04:17;99839.38;;;11.86;100.00
69318;BME280;56457;52.190;4.440;2023-10-31T00:05:19;99849.13;;;11.82;100.00
69318;BME280;56457;52.190;4.440;2023-10-31T00:06:20;99844.69;;;11.84;100.00
69318;BME280;56457;52.190;4.440;2023-10-31T00:07:20;99843.88;;;11.82;100.00
69318;BME280;56457;52.190;4.440;2023-10-31T00:08:20;99845.38;;;11.91;100.00
69318;BME280;56457;52.190;4.440;2023-10-31T00:09:21;99842.56;;;11.97;100.00
69318;BME280;56457;52.190;4.440;2023-10-31T00:10:21;99853.06;;;11.97;100.00
69318;BME280;56457;52.190;4.440;2023-10-31T00:11:21;99835.41;;;12.02;100.00
69318;BME280;56457;52.190;4.440;2023-10-31T00:12:22;99835.34;;;12.05;100.00
69318;BME280;56457;52.190;4.440;2023-10-31T00:13:22;99839.53;;;12.11;100.00
69318;BME280;56457;52.190;4.440;2023-10-31T00:14:22;99835.97;;;12.13;100.00
69318;BME280;56457;52.190;4.440;2023-10-31T00:15:23;99840.31;;;12.15;100.00
69318;BME280;56457;52.190;4.440;2023-10-31T00:16:24;99825.25;;;12.20;100.00
69318;BME280;56457;52.190;4.440;2023-10-31T00:17:25;99827.03;;;12.19;100.00
69318;BME280;56457;52.190;4.440;2023-10-31T00:18:25;99828.59;;;12.25;100.00
69318;BME280;56457;52.190;4.440;2023-10-31T00:19:25;99826.91;;;12.22;100.00
69318;BME280;56457;52.190;4.440;2023-10-31T00:20:26;99822.63;;;12.20;100.00
69318;BME280;56457;52.190;4.440;2023-10-31T00:21:26;99821.66;;;12.22;100.00
69318;BME280;56457;52.190;4.440;2023-10-31T00:22:26;99824.22;;;12.25;100.00
69318;BME280;56457;52.190;4.440;2023-10-31T00:23:27;99826.78;;;12.27;100.00
69318;BME280;56457;52.190;4.440;2023-10-31T00:24:27;99832.75;;;12.32;100.00
69318;BME280;56457;52.190;4.440;2023-10-31T00:25:27;99832.66;;;12.35;100.00
69318;BME280;56457;52.190;4.440;2023-10-31T00:26:27;99816.19;;;12.30;100.00
69318;BME280;56457;52.190;4.440;2023-10-31T00:27:28;99830.28;;;12.27;100.00
69318;BME280;56457;52.190;4.440;2023-10-31T00:28:28;99829.53;;;12.22;100.00
69318;BME280;56457;52.190;4.440;2023-10-31T00:29:28;99833.88;;;12.25;100.00
69318;BME280;56457;52.190;4.440;2023-10-31T00:30:28;99831.13;;;12.28;100.00
69318;BME280;56457;52.190;4.440;2023-10-31T00:31:29;99830.28;;;12.27;100.00
69318;BME280;56457;52.190;4.440;2023-10-31T00:32:29;99831.00;;;12.32;100.00
69318;BME280;56457;52.190;4.440;2023-10-31T00:33:29;99823.91;;;12.34;100.00
69318;BME280;56457;52.190;4.440;2023-10-31T00:34:30;99821.38;;;12.31;100.00
69318;BME280;56457;52.190;4.440;2023-10-31T00:35:30;99821.16;;;12.39;100.00
69318;BME280;56457;52.190;4.440;2023-10-31T00:36:30;99818.44;;;12.40;100.00
69318;BME280;56457;52.190;4.440;2023-10-31T00:37:31;99821.81;;;12.46;100.00
69318;BME280;56457;52.190;4.440;2023-10-31T00:38:31;99819.28;;;12.43;100.00
69318;BME280;56457;52.190;4.440;2023-10-31T00:39:31;99825.25;;;12.48;100.00
69318;BME280;56457;52.190;4.440;2023-10-31T00:40:34;99822.53;;;12.51;100.00
69318;BME280;56457;52.190;4.440;2023-10-31T00:41:34;99820.69;;;12.53;100.00
69318;BME280;56457;52.190;4.440;2023-10-31T00:42:34;99819.84;;;12.52;100.00
69318;BME280;56457;52.190;4.440;2023-10-31T00:43:34;99814.63;;;12.51;100.00
69318;BME280;56457;52.190;4.440;2023-10-31T00:44:35;99813.91;;;12.46;100.00
69318;BME280;56457;52.190;4.440;2023-10-31T00:45:35;99811.34;;;12.44;100.00
69318;BME280;56457;52.190;4.440;2023-10-31T00:46:35;99806.28;;;12.38;100.00
69318;BME280;56457;52.190;4.440;2023-10-31T00:47:36;99808.03;;;12.37;100.00
69318;BME280;56457;52.190;4.440;2023-10-31T00:48:37;99809.75;;;12.38;100.00
69318;BME280;56457;52.190;4.440;2023-10-31T00:49:37;99809.91;;;12.34;100.00
69318;BME280;56457;52.190;4.440;2023-10-31T00:50:37;99814.16;;;12.38;100.00
69318;BME280;56457;52.190;4.440;2023-10-31T00:51:38;99815.06;;;12.37;100.00
69318;BME280;56457;52.190;4.440;2023-10-31T00:52:38;99816.00;;;12.34;100.00
69318;BME280;56457;52.190;4.440;2023-10-31T00:53:38;99817.72;;;12.35;100.00
69318;BME280;56457;52.190;4.440;2023-10-31T00:54:39;99817.72;;;12.35;100.00
69318;BME280;56457;52.190;4.440;2023-10-31T00:55:39;99814.22;;;12.36;100.00
69318;BME280;56457;52.190;4.440;2023-10-31T00:56:39;99824.56;;;12.43;100.00
69318;BME280;56457;52.190;4.440;2023-10-31T00:57:39;99820.09;;;12.45;100.00
69318;BME280;56457;52.190;4.440;2023-10-31T00:58:40;99824.34;;;12.49;100.00
69318;BME280;56457;52.190;4.440;2023-10-31T00:59:40;99828.84;;;12.45;100.00
69318;BME280;56457;52.190;4.440;2023-10-31T01:00:40;99832.66;;;12.35;100.00
69318;BME280;56457;52.190;4.440;2023-10-31T01:01:42;99843.34;;;12.30;100.00
69318;BME280;56457;52.190;4.440;2023-10-31T01:02:42;99835.44;;;12.30;100.00
69318;BME280;56457;52.190;4.440;2023-10-31T01:03:43;99834.44;;;12.34;100.00
69318;BME280;56457;52.190;4.440;2023-10-31T01:04:43;99837.06;;;12.34;100.00
69318;BME280;56457;52.190;4.440;2023-10-31T01:05:44;99848.41;;;12.36;100.00
69318;BME280;56457;52.190;4.440;2023-10-31T01:06:44;99845.63;;;12.41;100.00
69318;BME280;56457;52.190;4.440;2023-10-31T01:07:44;99845.81;;;12.35;100.00
69318;BME280;56457;52.190;4.440;2023-10-31T01:08:44;99846.72;;;12.34;100.00
69318;BME280;56457;52.190;4.440;2023-10-31T01:09:45;99855.28;;;12.40;100.00
69318;BME280;56457;52.190;4.440;2023-10-31T01:10:45;99855.94;;;12.49;100.00
69318;BME280;56457;52.190;4.440;2023-10-31T01:11:45;99847.97;;;12.50;100.00
69318;BME280;56457;52.190;4.440;2023-10-31T01:12:46;99851.47;;;12.51;100.00
69318;BME280;56457;52.190;4.440;2023-10-31T01:13:46;99850.69;;;12.47;100.00
69318;BME280;56457;52.190;4.440;2023-10-31T01:14:46;99855.94;;;12.47;100.00
69318;BME280;56457;52.190;4.440;2023-10-31T01:15:47;99854.38;;;12.42;100.00
69318;BME280;56457;52.190;4.440;2023-10-31T01:16:47;99855.16;;;12.45;100.00
69318;BME280;56457;52.190;4.440;2023-10-31T01:17:47;99859.53;;;12.45;100.00
69318;BME280;56457;52.190;4.440;2023-10-31T01:18:47;99864.75;;;12.46;100.00
69318;BME280;56457;52.190;4.440;2023-10-31T01:19:48;99863.84;;;12.47;100.00
69318;BME280;56457;52.190;4.440;2023-10-31T01:20:48;99870.78;;;12.50;100.00
69318;BME280;56457;52.190;4.440;2023-10-31T01:21:52;99863.66;;;12.53;100.00
69318;BME280;56457;52.190;4.440;2023-10-31T01:22:52;99869.75;;;12.55;100.00
69318;BME280;56457;52.190;4.440;2023-10-31T01:23:52;99868.88;;;12.55;100.00
69318;BME280;56457;52.190;4.440;2023-10-31T01:24:53;99869.03;;;12.50;100.00
69318;BME280;56457;52.190;4.440;2023-10-31T01:25:53;99868.88;;;12.55;100.00
69318;BME280;56457;52.190;4.440;2023-10-31T01:26:53;99864.50;;;12.54;100.00
69318;BME280;56457;52.190;4.440;2023-10-31T01:27:54;99868.88;;;12.55;100.00
69318;BME280;56457;52.190;4.440;2023-10-31T01:28:54;99871.47;;;12.56;100.00
69318;BME280;56457;52.190;4.440;2023-10-31T01:29:54;99877.59;;;12.57;100.00
69318;BME280;56457;52.190;4.440;2023-10-31T01:30:54;99872.22;;;12.60;100.00
69318;BME280;56457;52.190;4.440;2023-10-31T01:31:55;99874.84;;;12.60;100.00
69318;BME280;56457;52.190;4.440;2023-10-31T01:32:55;99878.56;;;12.53;100.00
69318;BME280;56457;52.190;4.440;2023-10-31T01:33:56;99877.78;;;12.51;100.00
69318;BME280;56457;52.190;4.440;2023-10-31T01:34:56;99881.22;;;12.53;100.00
69318;BME280;56457;52.190;4.440;2023-10-31T01:35:57;99889.22;;;12.50;100.00
69318;BME280;56457;52.190;4.440;2023-10-31T01:36:57;99877.06;;;12.46;100.00
69318;BME280;56457;52.190;4.440;2023-10-31T01:37:57;99883.09;;;12.49;100.00
69318;BME280;56457;52.190;4.440;2023-10-31T01:38:57;99889.28;;;12.47;100.00
69318;BME280;56457;52.190;4.440;2023-10-31T01:39:59;99893.75;;;12.45;100.00
69318;BME280;56457;52.190;4.440;2023-10-31T01:40:59;99893.69;;;12.46;100.00
69318;BME280;56457;52.190;4.440;2023-10-31T01:41:59;99894.59;;;12.45;100.00
69318;BME280;56457;52.190;4.440;2023-10-31T01:43:00;99901.63;;;12.45;100.00
69318;BME280;56457;52.190;4.440;2023-10-31T01:44:00;99897.22;;;12.45;100.00
69318;BME280;56457;52.190;4.440;2023-10-31T01:45:00;99898.88;;;12.49;100.00
69318;BME280;56457;52.190;4.440;2023-10-31T01:46:01;99898.00;;;12.49;100.00
69318;BME280;56457;52.190;4.440;2023-10-31T01:47:01;99902.50;;;12.45;100.00
69318;BME280;56457;52.190;4.440;2023-10-31T01:48:01;99897.22;;;12.45;100.00
69318;BME280;56457;52.190;4.440;2023-10-31T01:49:02;99905.94;;;12.47;100.00
69318;BME280;56457;52.190;4.440;2023-10-31T01:50:03;99897.28;;;12.44;100.00
69318;BME280;56457;52.190;4.440;2023-10-31T01:51:06;99907.75;;;12.45;100.00
69318;BME280;56457;52.190;4.440;2023-10-31T01:52:07;99905.94;;;12.47;100.00
69318;BME280;56457;52.190;4.440;2023-10-31T01:53:07;99910.28;;;12.48;100.00
69318;BME280;56457;52.190;4.440;2023-10-31T01:54:08;99908.53;;;12.49;100.00
69318;BME280;56457;52.190;4.440;2023-10-31T01:55:09;99906.78;;;12.48;100.00
69318;BME280;56457;52.190;4.440;2023-10-31T01:56:10;99901.44;;;12.51;100.00
69318;BME280;56457;52.190;4.440;2023-10-31T01:57:11;99913.69;;;12.52;100.00
69318;BME280;56457;52.190;4.440;2023-10-31T01:58:11;99905.72;;;12.55;100.00
69318;BME280;56457;52.190;4.440;2023-10-31T01:59:12;99909.22;;;12.55;100.00
69318;BME280;56457;52.190;4.440;2023-10-31T02:00:12;99908.34;;;12.55;100.00
69318;BME280;56457;52.190;4.440;2023-10-31T02:01:13;99911.13;;;12.50;100.00
69318;BME280;56457;52.190;4.440;2023-10-31T02:02:13;99918.03;;;12.53;100.00
69318;BME280;56457;52.190;4.440;2023-10-31T02:03:14;99910.16;;;12.53;100.00
69318;BME280;56457;52.190;4.440;2023-10-31T02:04:14;99912.66;;;12.57;100.00
69318;BME280;56457;52.190;4.440;2023-10-31T02:05:15;99916.09;;;12.59;100.00
69318;BME280;56457;52.190;4.440;2023-10-31T02:06:15;99906.41;;;12.61;100.00
69318;BME280;56457;52.190;4.440;2023-10-31T02:07:16;99906.41;;;12.60;100.00
69318;BME280;56457;52.190;4.440;2023-10-31T02:08:16;99910.81;;;12.59;100.00
69318;BME280;56457;52.190;4.440;2023-10-31T02:09:17;99909.88;;;12.62;100.00
69318;BME280;56457;52.190;4.440;2023-10-31T02:10:17;99914.19;;;12.64;100.00
69318;BME280;56457;52.190;4.440;2023-10-31T02:11:17;99920.41;;;12.62;100.00
69318;BME280;56457;52.190;4.440;2023-10-31T02:12:36;99921.41;;;12.58;100.00
69318;BME280;56457;52.190;4.440;2023-10-31T02:13:37;99925.00;;;12.55;100.00
69318;BME280;56457;52.190;4.440;2023-10-31T02:14:37;99925.81;;;12.57;100.00
69318;BME280;56457;52.190;4.440;2023-10-31T02:15:38;99920.47;;;12.59;100.00
69318;BME280;56457;52.190;4.440;2023-10-31T02:16:38;99922.19;;;12.60;100.00
69318;BME280;56457;52.190;4.440;2023-10-31T02:17:38;99922.19;;;12.61;100.00
69318;BME280;56457;52.190;4.440;2023-10-31T02:18:39;99927.47;;;12.60;100.00
69318;BME280;56457;52.190;4.440;2023-10-31T02:19:39;99924.88;;;12.58;100.00
69318;BME280;56457;52.190;4.440;2023-10-31T02:20:40;99923.31;;;12.53;100.00
69318;BME280;56457;52.190;4.440;2023-10-31T02:21:40;99921.72;;;12.47;100.00
69318;BME280;56457;52.190;4.440;2023-10-31T02:22:40;99924.50;;;12.43;100.00
69318;BME280;56457;52.190;4.440;2023-10-31T02:23:41;99920.97;;;12.44;100.00
69318;BME280;56457;52.190;4.440;2023-10-31T02:24:41;99922.94;;;12.35;100.00
69318;BME280;56457;52.190;4.440;2023-10-31T02:25:41;99922.94;;;12.35;100.00
69318;BME280;56457;52.190;4.440;2023-10-31T02:26:42;99924.03;;;12.28;100.00
69318;BME280;56457;52.190;4.440;2023-10-31T02:27:42;99922.50;;;12.21;100.00
69318;BME280;56457;52.190;4.440;2023-10-31T02:28:42;99916.38;;;12.21;100.00
69318;BME280;56457;52.190;4.440;2023-10-31T02:29:42;99917.28;;;12.20;100.00
69318;BME280;56457;52.190;4.440;2023-10-31T02:30:43;99918.03;;;12.23;100.00
69318;BME280;56457;52.190;4.440;2023-10-31T02:31:43;99914.72;;;12.18;100.00
69318;BME280;56457;52.190;4.440;2023-10-31T02:32:43;99923.47;;;12.19;100.00
69318;BME280;56457;52.190;4.440;2023-10-31T02:33:44;99922.66;;;12.15;100.00
69318;BME280;56457;52.190;4.440;2023-10-31T02:34:44;99919.22;;;12.13;100.00
69318;BME280;56457;52.190;4.440;2023-10-31T02:35:45;99920.94;;;12.14;100.00
69318;BME280;56457;52.190;4.440;2023-10-31T02:36:45;99926.28;;;12.11;100.00
69318;BME280;56457;52.190;4.440;2023-10-31T02:37:45;99925.41;;;12.12;100.00
69318;BME280;56457;52.190;4.440;2023-10-31T02:38:46;99923.63;;;12.12;100.00
69318;BME280;56457;52.190;4.440;2023-10-31T02:39:46;99926.28;;;12.11;100.00
69318;BME280;56457;52.190;4.440;2023-10-31T02:40:46;99927.38;;;12.04;100.00
69318;BME280;56457;52.190;4.440;2023-10-31T02:41:47;99932.63;;;12.04;100.00
69318;BME280;56457;52.190;4.440;2023-10-31T02:42:47;99933.34;;;12.09;100.00
69318;BME280;56457;52.190;4.440;2023-10-31T02:43:48;99936.09;;;12.06;100.00
69318;BME280;56457;52.190;4.440;2023-10-31T02:44:48;99934.28;;;12.08;100.00
69318;BME280;56457;52.190;4.440;2023-10-31T02:45:48;99928.16;;;12.07;100.00
69318;BME280;56457;52.190;4.440;2023-10-31T02:46:49;99934.38;;;12.05;100.00
69318;BME280;56457;52.190;4.440;2023-10-31T02:47:49;99935.31;;;12.02;100.00
69318;BME280;56457;52.190;4.440;2023-10-31T02:48:49;99938.72;;;12.06;100.00
69318;BME280;56457;52.190;4.440;2023-10-31T02:49:49;99937.94;;;12.02;100.00
69318;BME280;56457;52.190;4.440;2023-10-31T02:50:50;99945.69;;;12.07;100.00
69318;BME280;56457;52.190;4.440;2023-10-31T02:51:51;99939.53;;;12.08;100.00
69318;BME280;56457;52.190;4.440;2023-10-31T02:52:51;99936.78;;;12.11;100.00
69318;BME280;56457;52.190;4.440;2023-10-31T02:53:51;99940.16;;;12.16;100.00
69318;BME280;56457;52.190;4.440;2023-10-31T02:54:52;99939.47;;;12.09;100.00
69318;BME280;56457;52.190;4.440;2023-10-31T02:55:52;99939.34;;;12.14;100.00
69318;BME280;56457;52.190;4.440;2023-10-31T02:56:52;99947.28;;;12.12;100.00
69318;BME280;56457;52.190;4.440;2023-10-31T02:57:53;99943.06;;;12.07;100.00
69318;BME280;56457;52.190;4.440;2023-10-31T02:58:53;99944.97;;;12.02;100.00
69318;BME280;56457;52.190;4.440;2023-10-31T02:59:53;99940.66;;;11.99;100.00
69318;BME280;56457;52.190;4.440;2023-10-31T03:00:54;99947.59;;;12.02;100.00
69318;BME280;56457;52.190;4.440;2023-10-31T03:01:55;99948.50;;;12.01;100.00
69318;BME280;56457;52.190;4.440;2023-10-31T03:02:56;99945.75;;;12.05;100.00
69318;BME280;56457;52.190;4.440;2023-10-31T03:03:56;99958.91;;;12.04;100.00
69318;BME280;56457;52.190;4.440;2023-10-31T03:04:56;99954.50;;;12.04;100.00
69318;BME280;56457;52.190;4.440;2023-10-31T03:05:57;99947.50;;;12.05;100.00
69318;BME280;56457;52.190;4.440;2023-10-31T03:06:58;99948.44;;;12.02;100.00
69318;BME280;56457;52.190;4.440;2023-10-31T03:07:58;99944.91;;;12.03;100.00
69318;BME280;56457;52.190;4.440;2023-10-31T03:08:58;99939.81;;;11.99;100.00
69318;BME280;56457;52.190;4.440;2023-10-31T03:09:58;99949.47;;;11.97;100.00
69318;BME280;56457;52.190;4.440;2023-10-31T03:10:59;99947.81;;;11.94;100.00
69318;BME280;56457;52.190;4.440;2023-10-31T03:11:59;99941.75;;;11.91;100.00
69318;BME280;56457;52.190;4.440;2023-10-31T03:12:59;99950.44;;;11.94;100.00
69318;BME280;56457;52.190;4.440;2023-10-31T03:13:59;99950.34;;;11.97;100.00
69318;BME280;56457;52.190;4.440;2023-10-31T03:15:00;99953.00;;;11.96;100.00
69318;BME280;56457;52.190;4.440;2023-10-31T03:16:00;99950.44;;;11.94;100.00
69318;BME280;56457;52.190;4.440;2023-10-31T03:17:00;99949.53;;;11.95;100.00
69318;BME280;56457;52.190;4.440;2023-10-31T03:18:01;99955.63;;;11.96;100.00
69318;BME280;56457;52.190;4.440;2023-10-31T03:19:02;99953.00;;;11.96;100.00
69318;BME280;56457;52.190;4.440;2023-10-31T03:20:03;99957.56;;;11.89;100.00
69318;BME280;56457;52.190;4.440;2023-10-31T03:21:03;99957.47;;;11.94;100.00
69318;BME280;56457;52.190;4.440;2023-10-31T03:22:03;99960.84;;;11.97;100.00
69318;BME280;56457;52.190;4.440;2023-10-31T03:23:04;99960.84;;;11.99;100.00
69318;BME280;56457;52.190;4.440;2023-10-31T03:24:04;99959.88;;;12.01;100.00
69318;BME280;56457;52.190;4.440;2023-10-31T03:25:05;99956.34;;;12.02;100.00
69318;BME280;56457;52.190;4.440;2023-10-31T03:26:05;99963.28;;;12.05;100.00
69318;BME280;56457;52.190;4.440;2023-10-31T03:27:06;99960.84;;;11.99;100.00
69318;BME280;56457;52.190;4.440;2023-10-31T03:28:09;99966.09;;;11.97;100.00
69318;BME280;56457;52.190;4.440;2023-10-31T03:29:17;99967.94;;;11.95;100.00
69318;BME280;56457;52.190;4.440;2023-10-31T03:30:17;99964.44;;;11.95;100.00
69318;BME280;56457;52.190;4.440;2023-10-31T03:31:17;99970.44;;;11.98;100.00
69318;BME280;56457;52.190;4.440;2023-10-31T03:32:18;99969.53;;;12.01;100.00
69318;BME280;56457;52.190;4.440;2023-10-31T03:33:18;99977.41;;;12.01;100.00
69318;BME280;56457;52.190;4.440;2023-10-31T03:34:18;99975.59;;;12.03;100.00
69318;BME280;56457;52.190;4.440;2023-10-31T03:35:19;99968.66;;;12.00;100.00
69318;BME280;56457;52.190;4.440;2023-10-31T03:36:19;99976.59;;;11.99;100.00
69318;BME280;56457;52.190;4.440;2023-10-31T03:37:20;99980.81;;;12.04;100.00
69318;BME280;56457;52.190;4.440;2023-10-31T03:38:20;99978.31;;;12.00;100.00
69318;BME280;56457;52.190;4.440;2023-10-31T03:39:20;99978.22;;;12.03;100.00
69318;BME280;56457;52.190;4.440;2023-10-31T03:40:21;99976.56;;;12.00;100.00
69318;BME280;56457;52.190;4.440;2023-10-31T03:41:21;99981.88;;;11.99;100.00
69318;BME280;56457;52.190;4.440;2023-10-31T03:42:21;99980.97;;;11.98;100.00
69318;BME280;56457;52.190;4.440;2023-10-31T03:43:21;99978.31;;;12.00;100.00
69318;BME280;56457;52.190;4.440;2023-10-31T03:44:22;99980.09;;;11.99;100.00
69318;BME280;56457;52.190;4.440;2023-10-31T03:45:22;99974.91;;;11.96;100.00
69318;BME280;56457;52.190;4.440;2023-10-31T03:46:23;99983.59;;;11.98;100.00
69318;BME280;56457;52.190;4.440;2023-10-31T03:47:23;99979.34;;;11.94;100.00
69318;BME280;56457;52.190;4.440;2023-10-31T03:48:23;99980.31;;;11.90;100.00
69318;BME280;56457;52.190;4.440;2023-10-31T03:49:23;99976.03;;;11.86;100.00
69318;BME280;56457;52.190;4.440;2023-10-31T03:50:24;99983.06;;;11.87;100.00
69318;BME280;56457;52.190;4.440;2023-10-31T03:51:24;99979.47;;;11.90;100.00
69318;BME280;56457;52.190;4.440;2023-10-31T03:52:24;99985.84;;;11.81;100.00
69318;BME280;56457;52.190;4.440;2023-10-31T03:53:25;99982.19;;;11.87;100.00
69318;BME280;56457;52.190;4.440;2023-10-31T03:54:25;99988.31;;;11.85;100.00
69318;BME280;56457;52.190;4.440;2023-10-31T03:55:25;99992.75;;;11.83;100.00
69318;BME280;56457;52.190;4.440;2023-10-31T03:56:25;99989.97;;;11.90;100.00
69318;BME280;56457;52.190;4.440;2023-10-31T03:57:26;99991.63;;;11.94;100.00
69318;BME280;56457;52.190;4.440;2023-10-31T03:58:26;99989.88;;;11.94;100.00
69318;BME280;56457;52.190;4.440;2023-10-31T03:59:26;100002.91;;;11.97;100.00
69318;BME280;56457;52.190;4.440;2023-10-31T04:00:27;100000.97;;;12.04;100.00
69318;BME280;56457;52.190;4.440;2023-10-31T04:01:27;100003.53;;;12.07;100.00
69318;BME280;56457;52.190;4.440;2023-10-31T04:02:27;100007.06;;;12.06;100.00
69318;BME280;56457;52.190;4.440;2023-10-31T04:03:28;100003.59;;;12.04;100.00
69318;BME280;56457;52.190;4.440;2023-10-31T04:04:28;100009.88;;;12.00;100.00
69318;BME280;56457;52.190;4.440;2023-10-31T04:05:28;100001.97;;;12.00;100.00
69318;BME280;56457;52.190;4.440;2023-10-31T04:06:29;100005.53;;;11.99;100.00
69318;BME280;56457;52.190;4.440;2023-10-31T04:07:29;100005.47;;;12.00;100.00
69318;BME280;56457;52.190;4.440;2023-10-31T04:08:29;100011.81;;;11.92;100.00
69318;BME280;56457;52.190;4.440;2023-10-31T04:09:30;100010.16;;;11.89;100.00
69318;BME280;56457;52.190;4.440;2023-10-31T04:10:30;100004.06;;;11.87;100.00
69318;BME280;56457;52.190;4.440;2023-10-31T04:11:30;100013.63;;;11.90;100.00
69318;BME280;56457;52.190;4.440;2023-10-31T04:12:31;100004.13;;;11.84;100.00
69318;BME280;56457;52.190;4.440;2023-10-31T04:13:31;100007.63;;;11.84;100.00
69318;BME280;56457;52.190;4.440;2023-10-31T04:14:32;100005.84;;;11.87;100.00
69318;BME280;56457;52.190;4.440;2023-10-31T04:15:32;100008.31;;;11.93;100.00
69318;BME280;56457;52.190;4.440;2023-10-31T04:16:42;100010.88;;;11.94;100.00
69318;BME280;56457;52.190;4.440;2023-10-31T04:17:45;100005.53;;;11.97;100.00
69318;BME280;56457;52.190;4.440;2023-10-31T04:18:46;100005.63;;;11.94;100.00
69318;BME280;56457;52.190;4.440;2023-10-31T04:19:46;100012.78;;;11.89;100.00
69318;BME280;56457;52.190;4.440;2023-10-31T04:20:46;100012.81;;;11.88;100.00
69318;BME280;56457;52.190;4.440;2023-10-31T04:21:47;100010.25;;;11.84;100.00
69318;BME280;56457;52.190;4.440;2023-10-31T04:22:47;100018.97;;;11.87;100.00
69318;BME280;56457;52.190;4.440;2023-10-31T04:23:47;100013.84;;;11.80;100.00
69318;BME280;56457;52.190;4.440;2023-10-31T04:24:47;100017.28;;;11.84;100.00
69318;BME280;56457;52.190;4.440;2023-10-31T04:25:48;100026.03;;;11.84;100.00
69318;BME280;56457;52.190;4.440;2023-10-31T04:26:48;100036.38;;;11.91;100.00
69318;BME280;56457;52.190;4.440;2023-10-31T04:27:48;100029.34;;;11.91;100.00
69318;BME280;56457;52.190;4.440;2023-10-31T04:28:49;100030.41;;;11.84;100.00
69318;BME280;56457;52.190;4.440;2023-10-31T04:29:49;100033.09;;;11.82;100.00
69318;BME280;56457;52.190;4.440;2023-10-31T04:30:49;100035.69;;;11.84;100.00
69318;BME280;56457;52.190;4.440;2023-10-31T04:31:50;100039.22;;;11.83;100.00
69318;BME280;56457;52.190;4.440;2023-10-31T04:32:50;100033.00;;;11.85;100.00
69318;BME280;56457;52.190;4.440;2023-10-31T04:33:50;100043.59;;;11.82;100.00
69318;BME280;56457;52.190;4.440;2023-10-31T04:34:50;100040.94;;;11.84;100.00
69318;BME280;56457;52.190;4.440;2023-10-31T04:35:51;100048.03;;;11.80;100.00
69318;BME280;56457;52.190;4.440;2023-10-31T04:36:51;100049.75;;;11.80;100.00
69318;BME280;56457;52.190;4.440;2023-10-31T04:37:51;100048.91;;;11.79;100.00
69318;BME280;56457;52.190;4.440;2023-10-31T04:38:52;100048.03;;;11.80;100.00
69318;BME280;56457;52.190;4.440;2023-10-31T04:39:52;100049.81;;;11.78;100.00
69318;BME280;56457;52.190;4.440;2023-10-31T04:40:52;100052.38;;;11.80;100.00
69318;BME280;56457;52.190;4.440;2023-10-31T04:41:53;100050.53;;;11.85;100.00
69318;BME280;56457;52.190;4.440;2023-10-31T04:42:54;100057.56;;;11.84;100.00
69318;BME280;56457;52.190;4.440;2023-10-31T04:43:54;100056.88;;;11.76;100.00
69318;BME280;56457;52.190;4.440;2023-10-31T04:44:55;100063.03;;;11.75;100.00
69318;BME280;56457;52.190;4.440;2023-10-31T04:45:55;100062.28;;;11.70;100.00
69318;BME280;56457;52.190;4.440;2023-10-31T04:46:55;100059.41;;;11.79;100.00
69318;BME280;56457;52.190;4.440;2023-10-31T04:47:55;100057.72;;;11.77;100.00
69318;BME280;56457;52.190;4.440;2023-10-31T04:48:56;100060.41;;;11.75;100.00
69318;BME280;56457;52.190;4.440;2023-10-31T04:49:56;100051.72;;;11.72;100.00
69318;BME280;56457;52.190;4.440;2023-10-31T04:50:57;100060.63;;;11.66;100.00
69318;BME280;56457;52.190;4.440;2023-10-31T04:51:57;100064.97;;;11.67;100.00
69318;BME280;56457;52.190;4.440;2023-10-31T04:52:58;100067.44;;;11.73;100.00
69318;BME280;56457;52.190;4.440;2023-10-31T04:53:58;100064.94;;;11.69;100.00
69318;BME280;56457;52.190;4.440;2023-10-31T04:54:58;100064.03;;;11.70;100.00
69318;BME280;56457;52.190;4.440;2023-10-31T04:55:59;100056.00;;;11.76;100.00
69318;BME280;56457;52.190;4.440;2023-10-31T04:56:59;100073.59;;;11.74;100.00
69318;BME280;56457;52.190;4.440;2023-10-31T04:58:00;100062.91;;;11.81;100.00
69318;BME280;56457;52.190;4.440;2023-10-31T04:59:00;100063.78;;;11.80;100.00
69318;BME280;56457;52.190;4.440;2023-10-31T05:00:00;100059.44;;;11.78;100.00
69318;BME280;56457;52.190;4.440;2023-10-31T05:01:01;100066.56;;;11.74;100.00
69318;BME280;56457;52.190;4.440;2023-10-31T05:02:01;100071.03;;;11.71;100.00
69318;BME280;56457;52.190;4.440;2023-10-31T05:03:03;100070.13;;;11.72;100.00
69318;BME280;56457;52.190;4.440;2023-10-31T05:04:03;100069.22;;;11.73;100.00
69318;BME280;56457;52.190;4.440;2023-10-31T05:05:04;100080.56;;;11.73;100.00
69318;BME280;56457;52.190;4.440;2023-10-31T05:06:05;100078.81;;;11.75;100.00
69318;BME280;56457;52.190;4.440;2023-10-31T05:07:05;100075.22;;;11.78;100.00
69318;BME280;56457;52.190;4.440;2023-10-31T05:08:07;100070.97;;;11.72;100.00
69318;BME280;56457;52.190;4.440;2023-10-31T05:09:07;100074.56;;;11.70;100.00
69318;BME280;56457;52.190;4.440;2023-10-31T05:10:08;100082.50;;;11.67;100.00
69318;BME280;56457;52.190;4.440;2023-10-31T05:11:08;100078.09;;;11.67;100.00
69318;BME280;56457;52.190;4.440;2023-10-31T05:12:09;100080.72;;;11.67;100.00
69318;BME280;56457;52.190;4.440;2023-10-31T05:13:09;100076.38;;;11.68;100.00
69318;BME280;56457;52.190;4.440;2023-10-31T05:14:10;100078.16;;;11.66;100.00
69318;BME280;56457;52.190;4.440;2023-10-31T05:15:10;100082.38;;;11.71;100.00